Puigcerda, Spain
Current Conditions -  °F | °C
As of 5:30 PM on Friday 19 Dec 2014 (Local Time) from LFMP Reporting Station
Clear Clear  
Wind Chill: 55°   Ceiling: Unl
Heat Index: 55°   Visibility: 6mi
Dew Point: 43°   Wind: 12mph
Humidity: 63%   Direction: 310°NW
Pressure: 30.33"   Gusts: NA
Location:  42.43°N, 1.93°E
Report Text: LFMP 191630Z AUTO 31010KT 9999 NSC 13/06 Q1027
Loading
Personal Weather Stations






























Interactive Weather Map New forecast layout! Learn more

10-Day Weather Forecast

Advertisements
Track Severe Weather on mobile